Meath Environmental Platform

Observations for Trim Market St

Time AQI Temp °C Hum % Pres Pa CO μg/m³ H₂S μg/m³ NO μg/m³ NO₂ μg/m³ O₃ μg/m³ SO₂ μg/m³ PM1 μg/m³ PM2.5 μg/m³ PM10 μg/m³
Monday 24 August 2026
08:34 1 15 78 6,078 0.86 0 2.63 44.81 10.63 0 2.85 4.13 6.95
08:32 1 14.7 78 1,892 0.85 0 2.34 32.27 21.08 0 3.56 5.06 8.69
08:31 1 14.5 78 2,147,483,647 0.91 0 2.37 36.73 14.92 0 4.28 5.53 8.69
08:27 1 13.9 78 2,147,483,647 0.81 0 4.44 32.82 20.77 0 3.56 6.45 10.41
08:22 1 13.2 79 2,147,483,647 0.92 0 6.34 38.7 9.95 0 3.56 5.96 9.26
08:16 1 12.6 79 2,147,483,647 0.78 0 8.74 37.03 8.71 0 3.56 4.53 7.53
08:15 1 12.5 79 2,147,483,647 0.79 0 8.99 38.75 6.85 0 2.85 5.47 9.25
08:14 1 12.4 79 2,147,483,647 0.78 0 6.64 36.91 9.21 0 2.85 4.52 7.53
08:13 1 12.3 79 2,147,483,647 0.8 0 5.26 32.25 13.39 0 3.56 5 8.1
08:12 1 12.2 79 2,147,483,647 0.83 0 9.83 33.31 11.76 0 2.14 3.58 7.53
08:11 1 12.1 79 2,147,483,647 0.75 0 16.07 29.17 16.93 0 3.56 5.47 9.25
08:10 1 12 79 2,147,483,647 0.77 0 8.59 30.43 14.85 0 4.28 6.41 10.97
08:09 1 11.9 79 2,147,483,647 0.79 0 12.35 33.96 9.47 0 2.85 5.94 9.25
08:08 1 11.8 79 2,147,483,647 0.8 0 8.89 34.7 8.3 0 3.56 5.46 8.68
08:07 1 11.7 79 2,147,483,647 0.76 0 7.63 33.55 9.23 0 2.85 4.52 8.1
08:01 1 11.2 79 3,351 0.75 0 18.44 32.52 8.11 0 3.56 4.99 8.1
08:00 1 11.1 79 4,349 0.79 0 18.84 32.32 7.89 0 3.56 4.99 9.25
07:52 1 10.6 79 9,519 0.75 0 8.77 20.07 18.09 0 3.56 5.46 10.96
07:51 1 10.5 79 10,181 0.73 0 8.32 22.95 14.45 0 4.28 5.93 9.82
07:46 1 10.2 79 12,731 1.05 0 8.29 22.32 13.34 0 4.28 5.93 9.25